sensor_id;sensor_type;location;lat;lon;timestamp;temperature;humidity
19496;DHT22;9888;48.606;9.630;2023-04-25T00:00:22;4.70;99.90
19496;DHT22;9888;48.606;9.630;2023-04-25T00:02:49;4.70;99.90
19496;DHT22;9888;48.606;9.630;2023-04-25T00:05:17;4.70;99.90
19496;DHT22;9888;48.606;9.630;2023-04-25T00:07:46;4.80;99.90
19496;DHT22;9888;48.606;9.630;2023-04-25T00:10:14;4.80;99.90
19496;DHT22;9888;48.606;9.630;2023-04-25T00:12:42;4.80;99.90
19496;DHT22;9888;48.606;9.630;2023-04-25T00:15:10;4.80;99.90
19496;DHT22;9888;48.606;9.630;2023-04-25T00:17:38;4.80;99.90
19496;DHT22;9888;48.606;9.630;2023-04-25T00:20:06;4.70;99.90
19496;DHT22;9888;48.606;9.630;2023-04-25T00:22:36;4.80;99.90
19496;DHT22;9888;48.606;9.630;2023-04-25T00:25:07;4.80;99.90
19496;DHT22;9888;48.606;9.630;2023-04-25T00:27:34;4.90;99.90
19496;DHT22;9888;48.606;9.630;2023-04-25T00:30:01;4.90;99.90
19496;DHT22;9888;48.606;9.630;2023-04-25T00:32:28;4.90;99.90
19496;DHT22;9888;48.606;9.630;2023-04-25T00:34:55;5.00;99.90
19496;DHT22;9888;48.606;9.630;2023-04-25T00:37:24;5.10;99.90
19496;DHT22;9888;48.606;9.630;2023-04-25T00:39:51;5.10;99.90
19496;DHT22;9888;48.606;9.630;2023-04-25T00:42:20;5.20;99.90
19496;DHT22;9888;48.606;9.630;2023-04-25T00:44:48;5.20;99.90
19496;DHT22;9888;48.606;9.630;2023-04-25T00:47:16;5.30;99.90
19496;DHT22;9888;48.606;9.630;2023-04-25T00:49:44;5.40;99.90
19496;DHT22;9888;48.606;9.630;2023-04-25T00:52:11;5.60;99.90
19496;DHT22;9888;48.606;9.630;2023-04-25T00:54:39;5.70;99.90
19496;DHT22;9888;48.606;9.630;2023-04-25T00:57:07;5.90;99.90
19496;DHT22;9888;48.606;9.630;2023-04-25T00:59:34;6.10;99.90
19496;DHT22;9888;48.606;9.630;2023-04-25T01:02:05;6.20;99.90
19496;DHT22;9888;48.606;9.630;2023-04-25T01:04:34;6.30;99.90
19496;DHT22;9888;48.606;9.630;2023-04-25T01:07:02;6.30;99.90
19496;DHT22;9888;48.606;9.630;2023-04-25T01:12:40;6.30;99.90
19496;DHT22;9888;48.606;9.630;2023-04-25T01:15:07;6.40;99.90
19496;DHT22;9888;48.606;9.630;2023-04-25T01:17:36;6.40;99.90
19496;DHT22;9888;48.606;9.630;2023-04-25T01:20:08;6.40;99.90
19496;DHT22;9888;48.606;9.630;2023-04-25T01:22:38;6.50;99.90
19496;DHT22;9888;48.606;9.630;2023-04-25T01:25:20;6.50;99.90
19496;DHT22;9888;48.606;9.630;2023-04-25T01:27:48;6.50;99.90
19496;DHT22;9888;48.606;9.630;2023-04-25T01:33:24;6.50;99.90
19496;DHT22;9888;48.606;9.630;2023-04-25T01:35:52;6.50;99.90
19496;DHT22;9888;48.606;9.630;2023-04-25T01:38:19;6.60;99.90
19496;DHT22;9888;48.606;9.630;2023-04-25T01:40:50;6.50;99.90
19496;DHT22;9888;48.606;9.630;2023-04-25T01:43:18;6.50;99.90
19496;DHT22;9888;48.606;9.630;2023-04-25T01:45:45;6.60;99.90
19496;DHT22;9888;48.606;9.630;2023-04-25T01:48:17;6.50;99.90
19496;DHT22;9888;48.606;9.630;2023-04-25T01:50:44;6.50;99.90
19496;DHT22;9888;48.606;9.630;2023-04-25T01:53:13;6.50;99.90
19496;DHT22;9888;48.606;9.630;2023-04-25T01:55:41;6.60;99.90
19496;DHT22;9888;48.606;9.630;2023-04-25T01:58:08;6.60;99.90
19496;DHT22;9888;48.606;9.630;2023-04-25T02:00:37;6.50;99.90
19496;DHT22;9888;48.606;9.630;2023-04-25T02:03:06;6.60;99.90
19496;DHT22;9888;48.606;9.630;2023-04-25T02:05:39;6.60;99.90
19496;DHT22;9888;48.606;9.630;2023-04-25T02:08:08;6.60;99.90
19496;DHT22;9888;48.606;9.630;2023-04-25T02:10:36;6.50;99.90
19496;DHT22;9888;48.606;9.630;2023-04-25T02:13:04;6.60;99.90
19496;DHT22;9888;48.606;9.630;2023-04-25T02:15:32;6.50;99.90
19496;DHT22;9888;48.606;9.630;2023-04-25T02:17:59;6.50;99.90
19496;DHT22;9888;48.606;9.630;2023-04-25T02:20:28;6.50;99.90
19496;DHT22;9888;48.606;9.630;2023-04-25T02:23:00;6.50;99.90
19496;DHT22;9888;48.606;9.630;2023-04-25T02:25:29;6.50;99.90
19496;DHT22;9888;48.606;9.630;2023-04-25T02:28:14;6.50;99.90
19496;DHT22;9888;48.606;9.630;2023-04-25T02:30:41;6.50;99.90
19496;DHT22;9888;48.606;9.630;2023-04-25T02:33:08;6.50;99.90
19496;DHT22;9888;48.606;9.630;2023-04-25T02:35:48;6.40;99.90
19496;DHT22;9888;48.606;9.630;2023-04-25T02:38:15;6.40;99.90
19496;DHT22;9888;48.606;9.630;2023-04-25T02:40:43;6.40;99.90
19496;DHT22;9888;48.606;9.630;2023-04-25T02:43:11;6.40;99.90
19496;DHT22;9888;48.606;9.630;2023-04-25T02:45:38;6.40;99.90
19496;DHT22;9888;48.606;9.630;2023-04-25T02:48:08;6.40;99.90
19496;DHT22;9888;48.606;9.630;2023-04-25T02:50:36;6.30;99.90
19496;DHT22;9888;48.606;9.630;2023-04-25T02:53:30;6.30;99.90
19496;DHT22;9888;48.606;9.630;2023-04-25T02:56:03;6.30;99.90
19496;DHT22;9888;48.606;9.630;2023-04-25T02:58:32;6.20;99.90
19496;DHT22;9888;48.606;9.630;2023-04-25T03:01:03;6.20;99.90
19496;DHT22;9888;48.606;9.630;2023-04-25T03:06:53;6.10;99.90
19496;DHT22;9888;48.606;9.630;2023-04-25T03:09:20;5.90;99.90
19496;DHT22;9888;48.606;9.630;2023-04-25T03:11:48;5.70;99.90
19496;DHT22;9888;48.606;9.630;2023-04-25T03:14:15;5.60;99.90
19496;DHT22;9888;48.606;9.630;2023-04-25T03:16:48;5.50;99.90
19496;DHT22;9888;48.606;9.630;2023-04-25T03:19:18;5.40;99.90
19496;DHT22;9888;48.606;9.630;2023-04-25T03:21:48;5.40;99.90
19496;DHT22;9888;48.606;9.630;2023-04-25T03:24:27;5.30;99.90
19496;DHT22;9888;48.606;9.630;2023-04-25T03:26:55;5.20;99.90
19496;DHT22;9888;48.606;9.630;2023-04-25T03:29:23;5.20;99.90
19496;DHT22;9888;48.606;9.630;2023-04-25T03:31:52;5.30;99.90
19496;DHT22;9888;48.606;9.630;2023-04-25T03:34:20;5.30;99.90
19496;DHT22;9888;48.606;9.630;2023-04-25T03:36:49;5.30;99.90
19496;DHT22;9888;48.606;9.630;2023-04-25T03:39:16;5.30;99.90
19496;DHT22;9888;48.606;9.630;2023-04-25T03:41:45;5.30;99.90
19496;DHT22;9888;48.606;9.630;2023-04-25T03:44:12;5.20;99.90
19496;DHT22;9888;48.606;9.630;2023-04-25T03:46:40;5.20;99.90
19496;DHT22;9888;48.606;9.630;2023-04-25T03:49:09;5.10;99.90
19496;DHT22;9888;48.606;9.630;2023-04-25T03:51:36;5.00;99.90
19496;DHT22;9888;48.606;9.630;2023-04-25T03:54:03;5.00;99.90
19496;DHT22;9888;48.606;9.630;2023-04-25T03:56:30;5.00;99.90
19496;DHT22;9888;48.606;9.630;2023-04-25T03:58:58;5.00;99.90
19496;DHT22;9888;48.606;9.630;2023-04-25T04:01:27;5.00;99.90
19496;DHT22;9888;48.606;9.630;2023-04-25T04:03:54;5.10;99.90
19496;DHT22;9888;48.606;9.630;2023-04-25T04:06:21;5.10;99.90
19496;DHT22;9888;48.606;9.630;2023-04-25T04:08:48;5.10;99.90
19496;DHT22;9888;48.606;9.630;2023-04-25T04:11:16;5.10;99.90
19496;DHT22;9888;48.606;9.630;2023-04-25T04:13:44;5.10;99.90
19496;DHT22;9888;48.606;9.630;2023-04-25T04:16:12;5.20;99.90
19496;DHT22;9888;48.606;9.630;2023-04-25T04:18:39;5.30;99.90
19496;DHT22;9888;48.606;9.630;2023-04-25T04:21:15;5.30;99.90
19496;DHT22;9888;48.606;9.630;2023-04-25T04:23:42;5.30;99.90
19496;DHT22;9888;48.606;9.630;2023-04-25T04:26:10;5.30;99.90
19496;DHT22;9888;48.606;9.630;2023-04-25T04:28:44;5.40;99.90
19496;DHT22;9888;48.606;9.630;2023-04-25T04:31:11;5.40;99.90
19496;DHT22;9888;48.606;9.630;2023-04-25T04:33:42;5.40;99.90
19496;DHT22;9888;48.606;9.630;2023-04-25T04:36:11;5.40;99.90
19496;DHT22;9888;48.606;9.630;2023-04-25T04:38:39;5.40;99.90
19496;DHT22;9888;48.606;9.630;2023-04-25T04:41:30;5.40;99.90
19496;DHT22;9888;48.606;9.630;2023-04-25T04:43:58;5.40;99.90
19496;DHT22;9888;48.606;9.630;2023-04-25T04:49:38;5.50;99.90
19496;DHT22;9888;48.606;9.630;2023-04-25T04:52:05;5.60;99.90
19496;DHT22;9888;48.606;9.630;2023-04-25T04:54:35;5.70;99.90
19496;DHT22;9888;48.606;9.630;2023-04-25T04:57:04;5.80;99.90
19496;DHT22;9888;48.606;9.630;2023-04-25T04:59:31;6.00;99.90
19496;DHT22;9888;48.606;9.630;2023-04-25T05:01:58;6.00;99.90
19496;DHT22;9888;48.606;9.630;2023-04-25T05:04:25;6.10;99.90
19496;DHT22;9888;48.606;9.630;2023-04-25T05:06:53;6.10;99.90
19496;DHT22;9888;48.606;9.630;2023-04-25T05:09:20;6.20;99.90
19496;DHT22;9888;48.606;9.630;2023-04-25T05:11:52;6.30;99.90
19496;DHT22;9888;48.606;9.630;2023-04-25T05:14:20;6.30;99.90
19496;DHT22;9888;48.606;9.630;2023-04-25T05:16:54;6.40;99.90
19496;DHT22;9888;48.606;9.630;2023-04-25T05:19:22;6.30;99.90
19496;DHT22;9888;48.606;9.630;2023-04-25T05:21:54;6.30;99.90
19496;DHT22;9888;48.606;9.630;2023-04-25T05:24:22;6.30;99.90
19496;DHT22;9888;48.606;9.630;2023-04-25T05:26:50;6.30;99.90
19496;DHT22;9888;48.606;9.630;2023-04-25T05:29:17;6.40;99.90
19496;DHT22;9888;48.606;9.630;2023-04-25T05:31:50;6.40;99.90
19496;DHT22;9888;48.606;9.630;2023-04-25T05:34:17;6.40;99.90
19496;DHT22;9888;48.606;9.630;2023-04-25T05:36:45;6.40;99.90
19496;DHT22;9888;48.606;9.630;2023-04-25T05:39:18;6.40;99.90
19496;DHT22;9888;48.606;9.630;2023-04-25T05:41:47;6.40;99.90
19496;DHT22;9888;48.606;9.630;2023-04-25T05:44:14;6.30;99.90
19496;DHT22;9888;48.606;9.630;2023-04-25T05:46:49;6.30;99.90
19496;DHT22;9888;48.606;9.630;2023-04-25T05:49:17;6.30;99.90
19496;DHT22;9888;48.606;9.630;2023-04-25T05:51:43;6.20;99.90
19496;DHT22;9888;48.606;9.630;2023-04-25T05:54:11;6.20;99.90
19496;DHT22;9888;48.606;9.630;2023-04-25T05:56:40;6.20;99.90
19496;DHT22;9888;48.606;9.630;2023-04-25T05:59:09;6.20;99.90
19496;DHT22;9888;48.606;9.630;2023-04-25T06:01:37;6.20;99.90
19496;DHT22;9888;48.606;9.630;2023-04-25T06:04:08;6.20;99.90
19496;DHT22;9888;48.606;9.630;2023-04-25T06:06:35;6.30;99.90
19496;DHT22;9888;48.606;9.630;2023-04-25T06:09:05;6.30;99.90
19496;DHT22;9888;48.606;9.630;2023-04-25T06:11:41;6.30;99.90
19496;DHT22;9888;48.606;9.630;2023-04-25T06:14:09;6.30;99.90
19496;DHT22;9888;48.606;9.630;2023-04-25T06:17:02;6.30;99.90
19496;DHT22;9888;48.606;9.630;2023-04-25T06:19:34;6.30;99.90
19496;DHT22;9888;48.606;9.630;2023-04-25T06:22:02;6.30;99.90
19496;DHT22;9888;48.606;9.630;2023-04-25T06:24:29;6.30;99.90
19496;DHT22;9888;48.606;9.630;2023-04-25T06:26:56;6.30;99.90
19496;DHT22;9888;48.606;9.630;2023-04-25T06:29:23;6.30;99.90
19496;DHT22;9888;48.606;9.630;2023-04-25T06:31:49;6.30;99.90
19496;DHT22;9888;48.606;9.630;2023-04-25T06:34:17;6.20;99.90
19496;DHT22;9888;48.606;9.630;2023-04-25T06:36:44;6.10;99.90
19496;DHT22;9888;48.606;9.630;2023-04-25T06:39:11;5.90;99.90
19496;DHT22;9888;48.606;9.630;2023-04-25T06:41:38;5.90;99.90
19496;DHT22;9888;48.606;9.630;2023-04-25T06:44:05;6.00;99.90
19496;DHT22;9888;48.606;9.630;2023-04-25T06:46:32;6.10;99.90
19496;DHT22;9888;48.606;9.630;2023-04-25T06:49:03;6.20;99.90
19496;DHT22;9888;48.606;9.630;2023-04-25T06:51:30;6.20;99.90
19496;DHT22;9888;48.606;9.630;2023-04-25T06:53:57;6.20;99.90
19496;DHT22;9888;48.606;9.630;2023-04-25T06:56:24;6.30;99.90
19496;DHT22;9888;48.606;9.630;2023-04-25T06:58:52;6.50;99.90
19496;DHT22;9888;48.606;9.630;2023-04-25T07:01:19;6.70;99.90
19496;DHT22;9888;48.606;9.630;2023-04-25T07:03:47;6.80;99.90
19496;DHT22;9888;48.606;9.630;2023-04-25T07:06:14;6.70;99.90
19496;DHT22;9888;48.606;9.630;2023-04-25T07:08:41;6.70;99.90
19496;DHT22;9888;48.606;9.630;2023-04-25T07:11:09;6.60;99.90
19496;DHT22;9888;48.606;9.630;2023-04-25T07:13:36;6.50;99.90
19496;DHT22;9888;48.606;9.630;2023-04-25T07:16:03;6.60;99.90
19496;DHT22;9888;48.606;9.630;2023-04-25T07:18:31;6.70;99.90
19496;DHT22;9888;48.606;9.630;2023-04-25T07:20:57;6.70;99.90
19496;DHT22;9888;48.606;9.630;2023-04-25T07:23:48;6.70;99.90
19496;DHT22;9888;48.606;9.630;2023-04-25T07:26:17;6.70;99.90
19496;DHT22;9888;48.606;9.630;2023-04-25T07:28:43;6.60;99.90
19496;DHT22;9888;48.606;9.630;2023-04-25T07:31:11;6.60;99.90
19496;DHT22;9888;48.606;9.630;2023-04-25T07:33:38;6.50;99.90
19496;DHT22;9888;48.606;9.630;2023-04-25T07:36:06;6.50;99.90
19496;DHT22;9888;48.606;9.630;2023-04-25T07:38:34;6.50;99.90
19496;DHT22;9888;48.606;9.630;2023-04-25T07:41:02;6.40;99.90
19496;DHT22;9888;48.606;9.630;2023-04-25T07:43:29;6.30;99.90
19496;DHT22;9888;48.606;9.630;2023-04-25T07:45:57;6.30;99.90
19496;DHT22;9888;48.606;9.630;2023-04-25T07:48:24;6.30;99.90
19496;DHT22;9888;48.606;9.630;2023-04-25T07:54:43;6.40;99.90
19496;DHT22;9888;48.606;9.630;2023-04-25T07:57:27;6.50;99.90
19496;DHT22;9888;48.606;9.630;2023-04-25T07:59:55;6.40;99.90
19496;DHT22;9888;48.606;9.630;2023-04-25T08:02:44;6.30;99.90
19496;DHT22;9888;48.606;9.630;2023-04-25T08:05:12;6.30;99.90
19496;DHT22;9888;48.606;9.630;2023-04-25T08:07:44;6.30;99.90
19496;DHT22;9888;48.606;9.630;2023-04-25T08:10:15;6.20;99.90
19496;DHT22;9888;48.606;9.630;2023-04-25T08:12:43;6.10;99.90
19496;DHT22;9888;48.606;9.630;2023-04-25T08:15:11;6.00;99.90
19496;DHT22;9888;48.606;9.630;2023-04-25T08:17:40;5.60;99.90
19496;DHT22;9888;48.606;9.630;2023-04-25T08:20:13;5.50;99.90
19496;DHT22;9888;48.606;9.630;2023-04-25T08:22:40;5.30;99.90
19496;DHT22;9888;48.606;9.630;2023-04-25T08:25:06;5.30;99.90
19496;DHT22;9888;48.606;9.630;2023-04-25T08:27:34;5.30;99.90
19496;DHT22;9888;48.606;9.630;2023-04-25T08:30:02;5.40;99.90
19496;DHT22;9888;48.606;9.630;2023-04-25T08:32:29;5.40;99.90
19496;DHT22;9888;48.606;9.630;2023-04-25T08:34:55;5.40;99.90
19496;DHT22;9888;48.606;9.630;2023-04-25T08:37:23;5.40;99.90
19496;DHT22;9888;48.606;9.630;2023-04-25T08:39:51;5.40;99.90
19496;DHT22;9888;48.606;9.630;2023-04-25T08:42:22;5.50;99.90
19496;DHT22;9888;48.606;9.630;2023-04-25T08:44:52;5.60;99.90
19496;DHT22;9888;48.606;9.630;2023-04-25T08:47:23;5.70;99.90
19496;DHT22;9888;48.606;9.630;2023-04-25T08:49:51;5.70;99.90
19496;DHT22;9888;48.606;9.630;2023-04-25T08:52:23;5.70;99.90
19496;DHT22;9888;48.606;9.630;2023-04-25T08:54:51;5.70;99.90
19496;DHT22;9888;48.606;9.630;2023-04-25T08:57:20;5.70;99.90
19496;DHT22;9888;48.606;9.630;2023-04-25T08:59:48;5.70;99.90
19496;DHT22;9888;48.606;9.630;2023-04-25T09:02:15;5.70;99.90
19496;DHT22;9888;48.606;9.630;2023-04-25T09:04:44;5.60;99.90
19496;DHT22;9888;48.606;9.630;2023-04-25T09:07:11;5.60;99.90
19496;DHT22;9888;48.606;9.630;2023-04-25T09:09:41;5.50;99.90
19496;DHT22;9888;48.606;9.630;2023-04-25T09:12:09;5.60;99.90
19496;DHT22;9888;48.606;9.630;2023-04-25T09:14:36;5.70;99.90
19496;DHT22;9888;48.606;9.630;2023-04-25T09:17:04;5.70;99.90
19496;DHT22;9888;48.606;9.630;2023-04-25T09:19:37;5.80;99.90
19496;DHT22;9888;48.606;9.630;2023-04-25T09:22:07;5.50;99.90
19496;DHT22;9888;48.606;9.630;2023-04-25T09:24:44;5.50;99.90
19496;DHT22;9888;48.606;9.630;2023-04-25T09:27:20;5.50;99.90
19496;DHT22;9888;48.606;9.630;2023-04-25T09:29:59;5.40;99.90
19496;DHT22;9888;48.606;9.630;2023-04-25T09:32:28;5.50;99.90
19496;DHT22;9888;48.606;9.630;2023-04-25T09:34:57;5.50;99.90
19496;DHT22;9888;48.606;9.630;2023-04-25T09:37:30;5.50;99.90
19496;DHT22;9888;48.606;9.630;2023-04-25T09:39:59;5.60;99.90
19496;DHT22;9888;48.606;9.630;2023-04-25T09:42:29;5.70;99.90
19496;DHT22;9888;48.606;9.630;2023-04-25T09:44:58;5.70;99.90
19496;DHT22;9888;48.606;9.630;2023-04-25T09:47:27;5.70;99.90
19496;DHT22;9888;48.606;9.630;2023-04-25T09:49:55;5.70;99.90
19496;DHT22;9888;48.606;9.630;2023-04-25T09:52:24;5.70;99.90
19496;DHT22;9888;48.606;9.630;2023-04-25T09:54:51;5.60;99.90
19496;DHT22;9888;48.606;9.630;2023-04-25T09:57:21;5.60;99.90
19496;DHT22;9888;48.606;9.630;2023-04-25T09:59:50;5.60;99.90
19496;DHT22;9888;48.606;9.630;2023-04-25T10:02:19;5.60;99.90
19496;DHT22;9888;48.606;9.630;2023-04-25T10:04:51;5.60;99.90
19496;DHT22;9888;48.606;9.630;2023-04-25T10:07:25;5.70;99.90
19496;DHT22;9888;48.606;9.630;2023-04-25T10:10:04;5.80;99.90
19496;DHT22;9888;48.606;9.630;2023-04-25T10:12:35;5.90;99.90
19496;DHT22;9888;48.606;9.630;2023-04-25T10:15:03;5.90;99.90
19496;DHT22;9888;48.606;9.630;2023-04-25T10:17:31;6.10;99.90
19496;DHT22;9888;48.606;9.630;2023-04-25T10:20:01;6.10;99.90
19496;DHT22;9888;48.606;9.630;2023-04-25T10:22:34;6.10;99.90
19496;DHT22;9888;48.606;9.630;2023-04-25T10:25:03;6.10;99.90
19496;DHT22;9888;48.606;9.630;2023-04-25T10:27:31;6.30;99.90
19496;DHT22;9888;48.606;9.630;2023-04-25T10:30:13;6.20;99.90
19496;DHT22;9888;48.606;9.630;2023-04-25T10:32:45;6.20;99.90
19496;DHT22;9888;48.606;9.630;2023-04-25T10:35:17;6.10;99.90
19496;DHT22;9888;48.606;9.630;2023-04-25T10:38:05;5.90;99.90
19496;DHT22;9888;48.606;9.630;2023-04-25T10:40:34;6.00;99.90
19496;DHT22;9888;48.606;9.630;2023-04-25T10:46:03;5.70;99.90
19496;DHT22;9888;48.606;9.630;2023-04-25T10:48:51;5.50;99.90
19496;DHT22;9888;48.606;9.630;2023-04-25T10:51:28;5.60;99.90
19496;DHT22;9888;48.606;9.630;2023-04-25T10:53:58;5.50;99.90
19496;DHT22;9888;48.606;9.630;2023-04-25T10:56:29;5.50;99.90
19496;DHT22;9888;48.606;9.630;2023-04-25T10:59:16;5.50;99.90
19496;DHT22;9888;48.606;9.630;2023-04-25T11:01:44;5.40;99.90
19496;DHT22;9888;48.606;9.630;2023-04-25T11:04:30;5.50;99.90
19496;DHT22;9888;48.606;9.630;2023-04-25T11:08:11;5.40;99.90
19496;DHT22;9888;48.606;9.630;2023-04-25T11:10:09;5.30;99.90
19496;DHT22;9888;48.606;9.630;2023-04-25T11:12:37;5.20;99.90
19496;DHT22;9888;48.606;9.630;2023-04-25T11:15:06;5.00;99.90
19496;DHT22;9888;48.606;9.630;2023-04-25T11:17:34;5.00;99.90
19496;DHT22;9888;48.606;9.630;2023-04-25T11:24:01;4.90;99.90
19496;DHT22;9888;48.606;9.630;2023-04-25T11:26:27;4.80;99.90
19496;DHT22;9888;48.606;9.630;2023-04-25T11:29:01;4.70;99.90
19496;DHT22;9888;48.606;9.630;2023-04-25T11:31:28;4.80;99.90
19496;DHT22;9888;48.606;9.630;2023-04-25T11:33:59;4.70;99.90
19496;DHT22;9888;48.606;9.630;2023-04-25T11:36:26;4.60;99.90
19496;DHT22;9888;48.606;9.630;2023-04-25T11:38:54;4.50;99.90
19496;DHT22;9888;48.606;9.630;2023-04-25T11:41:22;4.60;99.90
19496;DHT22;9888;48.606;9.630;2023-04-25T11:43:49;4.40;99.90
19496;DHT22;9888;48.606;9.630;2023-04-25T11:46:18;4.40;99.90
19496;DHT22;9888;48.606;9.630;2023-04-25T11:48:46;4.40;99.90
19496;DHT22;9888;48.606;9.630;2023-04-25T11:51:14;4.40;99.90
19496;DHT22;9888;48.606;9.630;2023-04-25T11:53:44;4.30;99.90
19496;DHT22;9888;48.606;9.630;2023-04-25T11:56:12;4.30;99.90
19496;DHT22;9888;48.606;9.630;2023-04-25T11:59:14;4.20;99.90
19496;DHT22;9888;48.606;9.630;2023-04-25T12:01:49;4.30;99.90
19496;DHT22;9888;48.606;9.630;2023-04-25T12:04:23;4.40;99.90
19496;DHT22;9888;48.606;9.630;2023-04-25T12:06:52;4.40;99.90
19496;DHT22;9888;48.606;9.630;2023-04-25T12:09:29;4.50;99.90
19496;DHT22;9888;48.606;9.630;2023-04-25T12:11:58;4.40;99.90
19496;DHT22;9888;48.606;9.630;2023-04-25T12:14:30;4.60;99.90
19496;DHT22;9888;48.606;9.630;2023-04-25T12:16:59;4.70;99.90
19496;DHT22;9888;48.606;9.630;2023-04-25T12:19:32;4.90;99.90
19496;DHT22;9888;48.606;9.630;2023-04-25T12:22:03;5.00;99.90
19496;DHT22;9888;48.606;9.630;2023-04-25T12:24:33;4.80;99.90
19496;DHT22;9888;48.606;9.630;2023-04-25T12:27:03;4.80;99.90
19496;DHT22;9888;48.606;9.630;2023-04-25T12:32:48;5.10;99.90
19496;DHT22;9888;48.606;9.630;2023-04-25T12:35:15;5.10;99.90
19496;DHT22;9888;48.606;9.630;2023-04-25T12:37:43;4.90;99.90
19496;DHT22;9888;48.606;9.630;2023-04-25T12:40:11;5.00;99.90
19496;DHT22;9888;48.606;9.630;2023-04-25T12:42:38;5.00;99.90
19496;DHT22;9888;48.606;9.630;2023-04-25T12:45:06;5.30;99.90
19496;DHT22;9888;48.606;9.630;2023-04-25T12:47:33;5.40;99.90
19496;DHT22;9888;48.606;9.630;2023-04-25T12:50:01;5.40;99.90
19496;DHT22;9888;48.606;9.630;2023-04-25T12:52:28;5.40;99.90
19496;DHT22;9888;48.606;9.630;2023-04-25T12:54:56;5.30;99.90
19496;DHT22;9888;48.606;9.630;2023-04-25T12:57:23;5.40;99.90
19496;DHT22;9888;48.606;9.630;2023-04-25T12:59:51;5.50;99.90
19496;DHT22;9888;48.606;9.630;2023-04-25T13:02:19;5.60;99.90
19496;DHT22;9888;48.606;9.630;2023-04-25T13:04:47;5.80;99.90
19496;DHT22;9888;48.606;9.630;2023-04-25T13:07:13;5.90;99.90
19496;DHT22;9888;48.606;9.630;2023-04-25T13:09:40;5.70;99.90
19496;DHT22;9888;48.606;9.630;2023-04-25T13:12:07;5.50;99.90
19496;DHT22;9888;48.606;9.630;2023-04-25T13:14:34;5.30;99.90
19496;DHT22;9888;48.606;9.630;2023-04-25T13:17:02;5.40;99.90
19496;DHT22;9888;48.606;9.630;2023-04-25T13:19:29;5.70;99.90
19496;DHT22;9888;48.606;9.630;2023-04-25T13:21:55;6.50;99.90
19496;DHT22;9888;48.606;9.630;2023-04-25T13:24:23;7.80;99.90
19496;DHT22;9888;48.606;9.630;2023-04-25T13:26:51;8.50;99.90
19496;DHT22;9888;48.606;9.630;2023-04-25T13:29:18;8.70;99.90
19496;DHT22;9888;48.606;9.630;2023-04-25T13:31:44;8.10;99.90
19496;DHT22;9888;48.606;9.630;2023-04-25T13:34:11;7.70;99.90
19496;DHT22;9888;48.606;9.630;2023-04-25T13:36:39;7.80;99.90
19496;DHT22;9888;48.606;9.630;2023-04-25T13:39:06;8.50;99.90
19496;DHT22;9888;48.606;9.630;2023-04-25T13:41:33;8.30;99.90
19496;DHT22;9888;48.606;9.630;2023-04-25T13:44:01;8.40;99.90
19496;DHT22;9888;48.606;9.630;2023-04-25T13:46:51;8.40;99.90
19496;DHT22;9888;48.606;9.630;2023-04-25T13:52:40;7.80;99.90
19496;DHT22;9888;48.606;9.630;2023-04-25T13:55:07;7.90;99.90
19496;DHT22;9888;48.606;9.630;2023-04-25T13:57:39;8.10;99.90
19496;DHT22;9888;48.606;9.630;2023-04-25T14:00:07;9.40;99.90
19496;DHT22;9888;48.606;9.630;2023-04-25T14:02:38;9.80;99.90
19496;DHT22;9888;48.606;9.630;2023-04-25T14:05:06;10.80;99.90
19496;DHT22;9888;48.606;9.630;2023-04-25T14:07:34;12.10;99.90
19496;DHT22;9888;48.606;9.630;2023-04-25T14:10:02;13.90;99.90
19496;DHT22;9888;48.606;9.630;2023-04-25T14:12:30;15.10;99.90
19496;DHT22;9888;48.606;9.630;2023-04-25T14:14:58;14.80;99.90
19496;DHT22;9888;48.606;9.630;2023-04-25T14:17:25;14.50;99.90
19496;DHT22;9888;48.606;9.630;2023-04-25T14:19:55;14.40;99.90
19496;DHT22;9888;48.606;9.630;2023-04-25T14:22:25;16.10;99.90
19496;DHT22;9888;48.606;9.630;2023-04-25T14:24:53;17.20;99.90
19496;DHT22;9888;48.606;9.630;2023-04-25T14:27:19;16.70;99.90
19496;DHT22;9888;48.606;9.630;2023-04-25T14:29:47;16.20;99.90
19496;DHT22;9888;48.606;9.630;2023-04-25T14:32:13;15.40;99.90
19496;DHT22;9888;48.606;9.630;2023-04-25T14:34:41;13.90;99.90
19496;DHT22;9888;48.606;9.630;2023-04-25T14:37:08;12.40;99.90
19496;DHT22;9888;48.606;9.630;2023-04-25T14:39:35;11.40;99.90
19496;DHT22;9888;48.606;9.630;2023-04-25T14:42:03;10.90;99.90
19496;DHT22;9888;48.606;9.630;2023-04-25T14:44:30;10.20;99.90
19496;DHT22;9888;48.606;9.630;2023-04-25T14:46:58;9.70;99.90
19496;DHT22;9888;48.606;9.630;2023-04-25T14:49:25;10.40;99.90
19496;DHT22;9888;48.606;9.630;2023-04-25T14:51:52;10.40;99.90
19496;DHT22;9888;48.606;9.630;2023-04-25T14:54:18;10.40;99.90
19496;DHT22;9888;48.606;9.630;2023-04-25T14:56:45;10.60;99.90
19496;DHT22;9888;48.606;9.630;2023-04-25T14:59:12;10.60;99.90
19496;DHT22;9888;48.606;9.630;2023-04-25T15:01:39;10.00;99.90
19496;DHT22;9888;48.606;9.630;2023-04-25T15:04:06;9.70;99.90
19496;DHT22;9888;48.606;9.630;2023-04-25T15:06:33;9.20;99.90
19496;DHT22;9888;48.606;9.630;2023-04-25T15:09:00;9.40;99.90
19496;DHT22;9888;48.606;9.630;2023-04-25T15:11:27;10.50;99.90
19496;DHT22;9888;48.606;9.630;2023-04-25T15:13:54;10.60;99.90
19496;DHT22;9888;48.606;9.630;2023-04-25T15:16:21;10.40;99.90
19496;DHT22;9888;48.606;9.630;2023-04-25T15:18:48;10.00;99.90
19496;DHT22;9888;48.606;9.630;2023-04-25T15:21:15;9.60;99.90
19496;DHT22;9888;48.606;9.630;2023-04-25T15:23:41;9.30;99.90
19496;DHT22;9888;48.606;9.630;2023-04-25T15:26:09;9.10;99.90
19496;DHT22;9888;48.606;9.630;2023-04-25T15:28:36;8.70;99.90
19496;DHT22;9888;48.606;9.630;2023-04-25T15:31:03;8.80;99.90
19496;DHT22;9888;48.606;9.630;2023-04-25T15:33:31;8.80;99.90
19496;DHT22;9888;48.606;9.630;2023-04-25T15:42:50;9.20;99.90
19496;DHT22;9888;48.606;9.630;2023-04-25T15:45:18;10.40;99.90
19496;DHT22;9888;48.606;9.630;2023-04-25T15:47:46;11.90;99.90
19496;DHT22;9888;48.606;9.630;2023-04-25T15:50:14;13.70;99.90
19496;DHT22;9888;48.606;9.630;2023-04-25T15:52:44;14.50;99.90
19496;DHT22;9888;48.606;9.630;2023-04-25T15:55:12;14.20;99.90
19496;DHT22;9888;48.606;9.630;2023-04-25T15:57:39;13.90;99.90
19496;DHT22;9888;48.606;9.630;2023-04-25T16:00:09;14.10;99.90
19496;DHT22;9888;48.606;9.630;2023-04-25T22:11:03;4.60;99.90
19496;DHT22;9888;48.606;9.630;2023-04-25T22:13:32;4.60;99.90
19496;DHT22;9888;48.606;9.630;2023-04-25T22:15:59;4.60;99.90
19496;DHT22;9888;48.606;9.630;2023-04-25T22:18:26;4.70;99.90
19496;DHT22;9888;48.606;9.630;2023-04-25T22:20:53;4.60;99.90
19496;DHT22;9888;48.606;9.630;2023-04-25T22:23:20;4.60;99.90
19496;DHT22;9888;48.606;9.630;2023-04-25T22:25:48;4.70;99.90
19496;DHT22;9888;48.606;9.630;2023-04-25T22:28:14;4.70;99.90
19496;DHT22;9888;48.606;9.630;2023-04-25T22:30:42;4.60;99.90
19496;DHT22;9888;48.606;9.630;2023-04-25T22:33:08;4.70;99.90
19496;DHT22;9888;48.606;9.630;2023-04-25T22:35:35;4.60;99.90
19496;DHT22;9888;48.606;9.630;2023-04-25T22:38:02;4.60;99.90
19496;DHT22;9888;48.606;9.630;2023-04-25T22:40:29;4.60;99.90
19496;DHT22;9888;48.606;9.630;2023-04-25T22:42:56;4.50;99.90
19496;DHT22;9888;48.606;9.630;2023-04-25T22:45:23;4.50;99.90
19496;DHT22;9888;48.606;9.630;2023-04-25T22:47:49;4.50;99.90
19496;DHT22;9888;48.606;9.630;2023-04-25T22:50:16;4.60;99.90
19496;DHT22;9888;48.606;9.630;2023-04-25T22:52:45;4.50;99.90
19496;DHT22;9888;48.606;9.630;2023-04-25T22:55:13;4.60;99.90
19496;DHT22;9888;48.606;9.630;2023-04-25T22:57:40;4.60;99.90